sensor_id;sensor_type;location;lat;lon;timestamp;pressure;altitude;pressure_sealevel;temperature;humidity
77877;BME280;67251;50.844;7.978;2023-08-24T00:01:31;99072.50;;;13.09;100.00
77877;BME280;67251;50.844;7.978;2023-08-24T00:04:01;99068.19;;;13.08;100.00
77877;BME280;67251;50.844;7.978;2023-08-24T00:06:26;99073.97;;;13.05;100.00
77877;BME280;67251;50.844;7.978;2023-08-24T00:08:52;99072.31;;;13.04;100.00
77877;BME280;67251;50.844;7.978;2023-08-24T00:11:18;99073.34;;;13.03;100.00
77877;BME280;67251;50.844;7.978;2023-08-24T00:13:44;99080.38;;;13.04;100.00
77877;BME280;67251;50.844;7.978;2023-08-24T00:16:17;99077.28;;;13.00;100.00
77877;BME280;67251;50.844;7.978;2023-08-24T00:18:42;99071.72;;;12.95;100.00
77877;BME280;67251;50.844;7.978;2023-08-24T00:21:08;99070.28;;;12.93;100.00
77877;BME280;67251;50.844;7.978;2023-08-24T00:23:33;99079.78;;;12.89;100.00
77877;BME280;67251;50.844;7.978;2023-08-24T00:25:59;99081.47;;;12.90;100.00
77877;BME280;67251;50.844;7.978;2023-08-24T00:28:25;99078.56;;;12.91;100.00
77877;BME280;67251;50.844;7.978;2023-08-24T00:30:52;99073.41;;;12.90;100.00
77877;BME280;67251;50.844;7.978;2023-08-24T00:33:17;99071.72;;;12.89;100.00
77877;BME280;67251;50.844;7.978;2023-08-24T00:35:43;99066.34;;;12.89;100.00
77877;BME280;67251;50.844;7.978;2023-08-24T00:38:08;99072.75;;;12.88;100.00
77877;BME280;67251;50.844;7.978;2023-08-24T00:40:34;99066.34;;;12.89;100.00
77877;BME280;67251;50.844;7.978;2023-08-24T00:42:59;99063.88;;;12.87;100.00
77877;BME280;67251;50.844;7.978;2023-08-24T00:45:25;99058.09;;;12.84;100.00
77877;BME280;67251;50.844;7.978;2023-08-24T00:47:51;99055.41;;;12.84;100.00
77877;BME280;67251;50.844;7.978;2023-08-24T00:50:17;99056.25;;;12.84;100.00
77877;BME280;67251;50.844;7.978;2023-08-24T00:52:43;99053.75;;;12.96;100.00
77877;BME280;67251;50.844;7.978;2023-08-24T00:55:09;99051.06;;;12.96;100.00
77877;BME280;67251;50.844;7.978;2023-08-24T00:57:37;99056.84;;;12.93;100.00
77877;BME280;67251;50.844;7.978;2023-08-24T01:00:04;99054.78;;;12.88;100.00
77877;BME280;67251;50.844;7.978;2023-08-24T01:02:31;99063.28;;;12.85;100.00
77877;BME280;67251;50.844;7.978;2023-08-24T01:04:56;99057.09;;;12.78;100.00
77877;BME280;67251;50.844;7.978;2023-08-24T01:07:23;99063.91;;;12.81;100.00
77877;BME280;67251;50.844;7.978;2023-08-24T01:09:49;99063.50;;;12.77;100.00
77877;BME280;67251;50.844;7.978;2023-08-24T01:15:17;99066.41;;;12.69;100.00
77877;BME280;67251;50.844;7.978;2023-08-24T01:17:46;99070.97;;;12.62;100.00
77877;BME280;67251;50.844;7.978;2023-08-24T01:20:13;99065.59;;;12.55;100.00
77877;BME280;67251;50.844;7.978;2023-08-24T01:22:56;99063.75;;;12.56;100.00
77877;BME280;67251;50.844;7.978;2023-08-24T01:25:37;99061.69;;;12.58;100.00
77877;BME280;67251;50.844;7.978;2023-08-24T01:28:05;99056.94;;;12.53;100.00
77877;BME280;67251;50.844;7.978;2023-08-24T01:30:34;99053.84;;;12.49;100.00
77877;BME280;67251;50.844;7.978;2023-08-24T01:33:02;99055.50;;;12.44;100.00
77877;BME280;67251;50.844;7.978;2023-08-24T01:35:30;99051.16;;;12.36;100.00
77877;BME280;67251;50.844;7.978;2023-08-24T01:37:55;99048.06;;;12.33;100.00
77877;BME280;67251;50.844;7.978;2023-08-24T01:40:26;99052.00;;;12.37;100.00
77877;BME280;67251;50.844;7.978;2023-08-24T01:43:03;99050.75;;;12.46;100.00
77877;BME280;67251;50.844;7.978;2023-08-24T01:48:06;99043.13;;;12.43;100.00
77877;BME280;67251;50.844;7.978;2023-08-24T01:50:32;99031.13;;;12.45;100.00
77877;BME280;67251;50.844;7.978;2023-08-24T01:52:58;99033.00;;;12.45;100.00
77877;BME280;67251;50.844;7.978;2023-08-24T01:55:24;99026.59;;;12.46;100.00
77877;BME280;67251;50.844;7.978;2023-08-24T01:57:49;99037.94;;;12.54;100.00
77877;BME280;67251;50.844;7.978;2023-08-24T02:00:15;99034.66;;;12.52;100.00
77877;BME280;67251;50.844;7.978;2023-08-24T02:02:44;99033.00;;;12.51;100.00
77877;BME280;67251;50.844;7.978;2023-08-24T02:05:09;99028.88;;;12.49;100.00
77877;BME280;67251;50.844;7.978;2023-08-24T02:07:35;99027.63;;;12.45;100.00
77877;BME280;67251;50.844;7.978;2023-08-24T02:10:01;99027.22;;;12.41;100.00
77877;BME280;67251;50.844;7.978;2023-08-24T02:12:26;99036.72;;;12.37;100.00
77877;BME280;67251;50.844;7.978;2023-08-24T02:14:52;99035.28;;;12.35;100.00
77877;BME280;67251;50.844;7.978;2023-08-24T02:17:17;99035.91;;;12.30;100.00
77877;BME280;67251;50.844;7.978;2023-08-24T02:19:43;99028.91;;;12.29;100.00
77877;BME280;67251;50.844;7.978;2023-08-24T02:22:09;99025.38;;;12.28;100.00
77877;BME280;67251;50.844;7.978;2023-08-24T02:24:34;99024.94;;;12.32;100.00
77877;BME280;67251;50.844;7.978;2023-08-24T02:27:00;99017.94;;;12.31;100.00
77877;BME280;67251;50.844;7.978;2023-08-24T02:29:25;99023.09;;;12.25;100.00
77877;BME280;67251;50.844;7.978;2023-08-24T02:31:51;99019.81;;;12.30;100.00
77877;BME280;67251;50.844;7.978;2023-08-24T02:34:17;99016.50;;;12.35;100.00
77877;BME280;67251;50.844;7.978;2023-08-24T02:36:42;99015.69;;;12.34;100.00
77877;BME280;67251;50.844;7.978;2023-08-24T02:39:07;99005.56;;;12.43;100.00
77877;BME280;67251;50.844;7.978;2023-08-24T02:41:34;99009.25;;;12.42;100.00
77877;BME280;67251;50.844;7.978;2023-08-24T02:44:00;99006.78;;;12.40;100.00
77877;BME280;67251;50.844;7.978;2023-08-24T02:46:26;99000.41;;;12.35;100.00
77877;BME280;67251;50.844;7.978;2023-08-24T02:48:51;98990.06;;;12.45;100.00
77877;BME280;67251;50.844;7.978;2023-08-24T02:51:16;98998.75;;;12.47;100.00
77877;BME280;67251;50.844;7.978;2023-08-24T02:53:42;99004.28;;;12.45;100.00
77877;BME280;67251;50.844;7.978;2023-08-24T02:59:29;98997.06;;;12.46;100.00
77877;BME280;67251;50.844;7.978;2023-08-24T03:01:54;98998.75;;;12.47;100.00
77877;BME280;67251;50.844;7.978;2023-08-24T03:04:20;98992.53;;;12.53;100.00
77877;BME280;67251;50.844;7.978;2023-08-24T03:06:45;98985.91;;;12.56;100.00
77877;BME280;67251;50.844;7.978;2023-08-24T03:09:10;98988.78;;;12.54;100.00
77877;BME280;67251;50.844;7.978;2023-08-24T03:11:36;98993.13;;;12.55;100.00
77877;BME280;67251;50.844;7.978;2023-08-24T03:14:01;98992.50;;;12.60;100.00
77877;BME280;67251;50.844;7.978;2023-08-24T03:16:27;98990.44;;;12.62;100.00
77877;BME280;67251;50.844;7.978;2023-08-24T03:18:52;98991.69;;;12.66;100.00
77877;BME280;67251;50.844;7.978;2023-08-24T03:21:17;98986.09;;;12.67;100.00
77877;BME280;67251;50.844;7.978;2023-08-24T03:23:43;98990.19;;;12.70;100.00
77877;BME280;67251;50.844;7.978;2023-08-24T03:26:08;98997.00;;;12.72;100.00
77877;BME280;67251;50.844;7.978;2023-08-24T03:28:34;98996.59;;;12.75;100.00
77877;BME280;67251;50.844;7.978;2023-08-24T03:31:00;98991.81;;;12.77;100.00
77877;BME280;67251;50.844;7.978;2023-08-24T03:33:25;98992.44;;;12.79;100.00
77877;BME280;67251;50.844;7.978;2023-08-24T03:35:51;99000.06;;;12.83;100.00
77877;BME280;67251;50.844;7.978;2023-08-24T03:38:17;98998.84;;;12.85;100.00
77877;BME280;67251;50.844;7.978;2023-08-24T03:40:42;98999.22;;;12.89;100.00
77877;BME280;67251;50.844;7.978;2023-08-24T03:43:08;99002.53;;;12.91;100.00
77877;BME280;67251;50.844;7.978;2023-08-24T03:45:33;99008.50;;;12.93;100.00
77877;BME280;67251;50.844;7.978;2023-08-24T03:47:58;98994.88;;;12.94;100.00
77877;BME280;67251;50.844;7.978;2023-08-24T03:50:24;98978.53;;;12.96;100.00
77877;BME280;67251;50.844;7.978;2023-08-24T03:52:50;98968.63;;;12.96;100.00
77877;BME280;67251;50.844;7.978;2023-08-24T03:55:16;98969.22;;;12.98;100.00
77877;BME280;67251;50.844;7.978;2023-08-24T03:57:41;98957.66;;;12.98;100.00
77877;BME280;67251;50.844;7.978;2023-08-24T04:00:07;98961.38;;;12.97;100.00
77877;BME280;67251;50.844;7.978;2023-08-24T04:02:39;98957.66;;;12.98;100.00
77877;BME280;67251;50.844;7.978;2023-08-24T04:05:04;98968.81;;;13.01;100.00
77877;BME280;67251;50.844;7.978;2023-08-24T04:07:30;98965.88;;;13.03;100.00
77877;BME280;67251;50.844;7.978;2023-08-24T04:09:56;98961.75;;;13.07;100.00
77877;BME280;67251;50.844;7.978;2023-08-24T04:12:22;98949.97;;;13.08;100.00
77877;BME280;67251;50.844;7.978;2023-08-24T04:14:47;98960.09;;;13.13;100.00
77877;BME280;67251;50.844;7.978;2023-08-24T04:17:12;98969.97;;;13.12;100.00
77877;BME280;67251;50.844;7.978;2023-08-24T04:19:39;98969.56;;;13.15;100.00
77877;BME280;67251;50.844;7.978;2023-08-24T04:22:04;98984.81;;;13.21;100.00
77877;BME280;67251;50.844;7.978;2023-08-24T04:24:29;98986.53;;;13.22;100.00
77877;BME280;67251;50.844;7.978;2023-08-24T04:26:55;98996.81;;;13.32;100.00
77877;BME280;67251;50.844;7.978;2023-08-24T04:29:21;99017.03;;;13.35;100.00
77877;BME280;67251;50.844;7.978;2023-08-24T04:31:46;99018.06;;;13.34;100.00
77877;BME280;67251;50.844;7.978;2023-08-24T04:34:12;99032.34;;;13.34;100.00
77877;BME280;67251;50.844;7.978;2023-08-24T04:36:37;99044.53;;;13.37;100.00
77877;BME280;67251;50.844;7.978;2023-08-24T04:39:03;99051.31;;;13.39;100.00
77877;BME280;67251;50.844;7.978;2023-08-24T04:41:28;99050.09;;;13.42;100.00
77877;BME280;67251;50.844;7.978;2023-08-24T04:43:54;99051.31;;;13.46;100.00
77877;BME280;67251;50.844;7.978;2023-08-24T04:46:20;99056.88;;;13.51;100.00
77877;BME280;67251;50.844;7.978;2023-08-24T04:48:45;99064.06;;;13.57;100.00
77877;BME280;67251;50.844;7.978;2023-08-24T04:51:10;99055.75;;;13.65;100.00
77877;BME280;67251;50.844;7.978;2023-08-24T04:53:36;99058.16;;;13.73;100.00
77877;BME280;67251;50.844;7.978;2023-08-24T04:56:01;99055.22;;;13.81;100.00
77877;BME280;67251;50.844;7.978;2023-08-24T04:58:27;99054.97;;;13.90;100.00
77877;BME280;67251;50.844;7.978;2023-08-24T05:00:52;99054.09;;;13.96;100.00
77877;BME280;67251;50.844;7.978;2023-08-24T05:03:17;99055.91;;;14.02;100.00
77877;BME280;67251;50.844;7.978;2023-08-24T05:05:44;99051.31;;;14.09;100.00
77877;BME280;67251;50.844;7.978;2023-08-24T05:08:10;99049.59;;;14.15;100.00
77877;BME280;67251;50.844;7.978;2023-08-24T05:10:35;99049.78;;;14.20;100.00
77877;BME280;67251;50.844;7.978;2023-08-24T05:13:01;99060.34;;;14.21;100.00
77877;BME280;67251;50.844;7.978;2023-08-24T05:15:26;99049.13;;;14.24;100.00
77877;BME280;67251;50.844;7.978;2023-08-24T05:17:52;99053.44;;;14.25;100.00
77877;BME280;67251;50.844;7.978;2023-08-24T05:20:20;99043.53;;;14.26;100.00
77877;BME280;67251;50.844;7.978;2023-08-24T05:22:46;99055.72;;;14.28;100.00
77877;BME280;67251;50.844;7.978;2023-08-24T05:25:11;99056.09;;;14.32;100.00
77877;BME280;67251;50.844;7.978;2023-08-24T05:27:37;99058.56;;;14.33;100.00
77877;BME280;67251;50.844;7.978;2023-08-24T05:30:03;99063.50;;;14.37;100.00
77877;BME280;67251;50.844;7.978;2023-08-24T05:32:30;99058.53;;;14.40;100.00
77877;BME280;67251;50.844;7.978;2023-08-24T05:34:56;99056.41;;;14.42;100.00
77877;BME280;67251;50.844;7.978;2023-08-24T05:37:21;99058.28;;;14.42;100.00
77877;BME280;67251;50.844;7.978;2023-08-24T05:39:47;99058.28;;;14.42;100.00
77877;BME280;67251;50.844;7.978;2023-08-24T05:42:12;99053.13;;;14.40;100.00
77877;BME280;67251;50.844;7.978;2023-08-24T05:44:38;99065.78;;;14.40;100.00
77877;BME280;67251;50.844;7.978;2023-08-24T05:47:03;99058.53;;;14.40;100.00
77877;BME280;67251;50.844;7.978;2023-08-24T05:49:29;99057.25;;;14.43;100.00
77877;BME280;67251;50.844;7.978;2023-08-24T05:51:55;99058.44;;;14.47;100.00
77877;BME280;67251;50.844;7.978;2023-08-24T05:54:20;99051.63;;;14.51;100.00
77877;BME280;67251;50.844;7.978;2023-08-24T05:56:46;99045.56;;;14.55;100.00
77877;BME280;67251;50.844;7.978;2023-08-24T05:59:11;99035.19;;;14.59;100.00
77877;BME280;67251;50.844;7.978;2023-08-24T06:01:37;99016.91;;;14.61;100.00
77877;BME280;67251;50.844;7.978;2023-08-24T06:04:08;99008.41;;;14.64;100.00
77877;BME280;67251;50.844;7.978;2023-08-24T06:06:34;98995.75;;;14.65;100.00
77877;BME280;67251;50.844;7.978;2023-08-24T06:09:00;98983.50;;;14.69;100.00
77877;BME280;67251;50.844;7.978;2023-08-24T06:11:25;98977.78;;;14.77;100.00
77877;BME280;67251;50.844;7.978;2023-08-24T06:13:51;98982.06;;;14.85;100.00
77877;BME280;67251;50.844;7.978;2023-08-24T06:16:20;98980.31;;;14.90;100.00
77877;BME280;67251;50.844;7.978;2023-08-24T06:18:45;98969.63;;;15.02;100.00
77877;BME280;67251;50.844;7.978;2023-08-24T06:21:11;98952.31;;;15.09;100.00
77877;BME280;67251;50.844;7.978;2023-08-24T06:23:36;98948.34;;;15.12;99.59
77877;BME280;67251;50.844;7.978;2023-08-24T06:26:02;98950.50;;;15.22;99.31
77877;BME280;67251;50.844;7.978;2023-08-24T06:28:27;98958.47;;;15.28;98.52
77877;BME280;67251;50.844;7.978;2023-08-24T06:30:54;98952.06;;;15.29;98.11
77877;BME280;67251;50.844;7.978;2023-08-24T06:33:20;98952.06;;;15.41;97.92
77877;BME280;67251;50.844;7.978;2023-08-24T06:35:45;98955.63;;;15.53;97.31
77877;BME280;67251;50.844;7.978;2023-08-24T06:38:10;98951.44;;;15.57;98.62
77877;BME280;67251;50.844;7.978;2023-08-24T06:40:36;98931.25;;;15.60;97.95
77877;BME280;67251;50.844;7.978;2023-08-24T06:43:02;98922.72;;;15.63;97.67
77877;BME280;67251;50.844;7.978;2023-08-24T06:45:27;98913.94;;;15.79;97.04
77877;BME280;67251;50.844;7.978;2023-08-24T06:47:52;98903.06;;;15.98;95.94
77877;BME280;67251;50.844;7.978;2023-08-24T06:50:18;98894.59;;;16.18;94.19
77877;BME280;67251;50.844;7.978;2023-08-24T06:52:47;98893.88;;;16.22;92.80
77877;BME280;67251;50.844;7.978;2023-08-24T06:55:12;98892.84;;;16.23;92.60
77877;BME280;67251;50.844;7.978;2023-08-24T06:57:38;98886.94;;;16.38;91.95
77877;BME280;67251;50.844;7.978;2023-08-24T07:00:04;98882.31;;;16.62;90.59
77877;BME280;67251;50.844;7.978;2023-08-24T07:02:38;98875.84;;;17.03;88.96
77877;BME280;67251;50.844;7.978;2023-08-24T07:05:03;98877.44;;;17.50;87.21
77877;BME280;67251;50.844;7.978;2023-08-24T07:07:34;98873.31;;;18.31;83.79
77877;BME280;67251;50.844;7.978;2023-08-24T07:09:59;98857.28;;;20.34;74.96
77877;BME280;67251;50.844;7.978;2023-08-24T07:12:25;98856.25;;;22.75;66.44
77877;BME280;67251;50.844;7.978;2023-08-24T07:14:50;98854.78;;;24.96;57.41
77877;BME280;67251;50.844;7.978;2023-08-24T07:17:15;98840.38;;;26.90;52.21
77877;BME280;67251;50.844;7.978;2023-08-24T07:19:41;98831.91;;;26.78;51.15
77877;BME280;67251;50.844;7.978;2023-08-24T07:22:06;98831.56;;;27.30;49.29
77877;BME280;67251;50.844;7.978;2023-08-24T07:24:31;98828.69;;;28.59;46.17
77877;BME280;67251;50.844;7.978;2023-08-24T07:26:58;98821.66;;;29.36;44.52
77877;BME280;67251;50.844;7.978;2023-08-24T07:29:24;98825.53;;;29.70;43.71
77877;BME280;67251;50.844;7.978;2023-08-24T07:31:49;98819.25;;;30.16;42.51
77877;BME280;67251;50.844;7.978;2023-08-24T07:34:14;98822.91;;;28.61;42.99
77877;BME280;67251;50.844;7.978;2023-08-24T07:36:41;98824.81;;;27.36;46.32
77877;BME280;67251;50.844;7.978;2023-08-24T07:39:07;98821.06;;;28.08;44.75
77877;BME280;67251;50.844;7.978;2023-08-24T07:41:33;98820.50;;;29.54;42.12
77877;BME280;67251;50.844;7.978;2023-08-24T07:43:58;98815.53;;;30.71;40.06
77877;BME280;67251;50.844;7.978;2023-08-24T07:46:23;98825.72;;;31.75;38.53
77877;BME280;67251;50.844;7.978;2023-08-24T07:48:50;98823.09;;;31.79;37.69
77877;BME280;67251;50.844;7.978;2023-08-24T07:51:15;98816.97;;;32.19;37.71
77877;BME280;67251;50.844;7.978;2023-08-24T07:53:40;98819.38;;;32.81;37.07
77877;BME280;67251;50.844;7.978;2023-08-24T07:56:06;98809.97;;;33.67;35.40
77877;BME280;67251;50.844;7.978;2023-08-24T07:58:31;98797.47;;;34.36;33.53
77877;BME280;67251;50.844;7.978;2023-08-24T08:00:58;98780.84;;;35.06;32.78
77877;BME280;67251;50.844;7.978;2023-08-24T08:03:24;98783.66;;;35.91;31.10
77877;BME280;67251;50.844;7.978;2023-08-24T08:05:49;98781.34;;;36.43;30.71
77877;BME280;67251;50.844;7.978;2023-08-24T08:08:15;98781.13;;;36.55;30.13
77877;BME280;67251;50.844;7.978;2023-08-24T08:10:41;98779.66;;;36.91;30.15
77877;BME280;67251;50.844;7.978;2023-08-24T08:13:07;98776.03;;;37.21;29.35
77877;BME280;67251;50.844;7.978;2023-08-24T08:15:33;98787.19;;;37.51;29.72
77877;BME280;67251;50.844;7.978;2023-08-24T08:17:58;98774.53;;;37.64;29.81
77877;BME280;67251;50.844;7.978;2023-08-24T08:20:24;98773.22;;;37.17;26.70
77877;BME280;67251;50.844;7.978;2023-08-24T08:22:49;98781.97;;;36.59;28.17
77877;BME280;67251;50.844;7.978;2023-08-24T08:25:15;98785.81;;;35.17;28.08
77877;BME280;67251;50.844;7.978;2023-08-24T08:27:43;98784.59;;;35.56;26.77
77877;BME280;67251;50.844;7.978;2023-08-24T08:30:09;98788.00;;;35.46;26.69
77877;BME280;67251;50.844;7.978;2023-08-24T08:32:34;98784.78;;;36.36;27.45
77877;BME280;67251;50.844;7.978;2023-08-24T08:34:59;98788.38;;;36.90;26.07
77877;BME280;67251;50.844;7.978;2023-08-24T08:37:26;98778.59;;;36.46;26.58
77877;BME280;67251;50.844;7.978;2023-08-24T08:39:51;98773.53;;;37.42;24.68
77877;BME280;67251;50.844;7.978;2023-08-24T08:42:17;98769.78;;;37.65;23.40
77877;BME280;67251;50.844;7.978;2023-08-24T08:44:45;98767.19;;;38.34;23.23
77877;BME280;67251;50.844;7.978;2023-08-24T08:47:11;98776.03;;;36.60;24.46
77877;BME280;67251;50.844;7.978;2023-08-24T08:49:38;98776.53;;;37.30;25.16
77877;BME280;67251;50.844;7.978;2023-08-24T08:52:05;98757.38;;;37.62;23.01
77877;BME280;67251;50.844;7.978;2023-08-24T08:54:31;98755.38;;;36.92;23.14
77877;BME280;67251;50.844;7.978;2023-08-24T08:56:58;98761.69;;;35.44;25.01
77877;BME280;67251;50.844;7.978;2023-08-24T08:59:25;98755.53;;;33.78;27.28
77877;BME280;67251;50.844;7.978;2023-08-24T09:01:55;98739.16;;;35.10;26.29
77877;BME280;67251;50.844;7.978;2023-08-24T09:04:21;98731.00;;;36.05;25.33
77877;BME280;67251;50.844;7.978;2023-08-24T09:06:48;98740.78;;;34.92;26.47
77877;BME280;67251;50.844;7.978;2023-08-24T09:09:14;98738.78;;;35.50;25.64
77877;BME280;67251;50.844;7.978;2023-08-24T09:11:40;98730.09;;;35.13;26.11
77877;BME280;67251;50.844;7.978;2023-08-24T09:14:07;98717.03;;;36.89;24.70
77877;BME280;67251;50.844;7.978;2023-08-24T09:16:32;98728.38;;;35.93;24.65
77877;BME280;67251;50.844;7.978;2023-08-24T09:18:58;98723.25;;;35.49;25.54
77877;BME280;67251;50.844;7.978;2023-08-24T09:21:24;98729.72;;;35.15;26.52
77877;BME280;67251;50.844;7.978;2023-08-24T09:23:54;98713.44;;;35.36;26.67
77877;BME280;67251;50.844;7.978;2023-08-24T09:26:30;98721.19;;;33.51;28.99
77877;BME280;67251;50.844;7.978;2023-08-24T09:28:57;98711.03;;;32.34;31.15
77877;BME280;67251;50.844;7.978;2023-08-24T09:31:24;98702.06;;;32.25;31.48
77877;BME280;67251;50.844;7.978;2023-08-24T09:34:03;98694.81;;;33.92;29.02
77877;BME280;67251;50.844;7.978;2023-08-24T09:36:35;98689.56;;;33.12;29.62
77877;BME280;67251;50.844;7.978;2023-08-24T09:39:01;98688.94;;;32.10;31.08
77877;BME280;67251;50.844;7.978;2023-08-24T09:41:41;98669.78;;;33.41;30.44
77877;BME280;67251;50.844;7.978;2023-08-24T09:44:07;98665.50;;;32.72;30.85
77877;BME280;67251;50.844;7.978;2023-08-24T09:46:34;98656.63;;;32.66;31.05
77877;BME280;67251;50.844;7.978;2023-08-24T09:49:00;98642.75;;;32.26;31.99
77877;BME280;67251;50.844;7.978;2023-08-24T09:51:27;98649.56;;;32.69;31.11
77877;BME280;67251;50.844;7.978;2023-08-24T09:53:56;98630.88;;;33.69;29.45
77877;BME280;67251;50.844;7.978;2023-08-24T09:56:25;98630.59;;;34.25;28.99
77877;BME280;67251;50.844;7.978;2023-08-24T09:58:53;98643.59;;;33.11;30.78
77877;BME280;67251;50.844;7.978;2023-08-24T10:01:19;98628.94;;;32.94;31.57
77877;BME280;67251;50.844;7.978;2023-08-24T10:03:46;98628.84;;;33.06;31.35
77877;BME280;67251;50.844;7.978;2023-08-24T10:06:13;98613.66;;;33.32;30.62
77877;BME280;67251;50.844;7.978;2023-08-24T10:08:44;98609.25;;;33.31;31.73
77877;BME280;67251;50.844;7.978;2023-08-24T10:11:17;98607.59;;;33.58;30.42
77877;BME280;67251;50.844;7.978;2023-08-24T10:13:50;98617.31;;;32.76;31.78
77877;BME280;67251;50.844;7.978;2023-08-24T10:16:19;98619.16;;;31.67;33.82
77877;BME280;67251;50.844;7.978;2023-08-24T10:18:47;98623.38;;;32.38;32.83
77877;BME280;67251;50.844;7.978;2023-08-24T10:21:12;98637.25;;;32.14;32.94
77877;BME280;67251;50.844;7.978;2023-08-24T10:23:39;98628.84;;;32.50;34.08
77877;BME280;67251;50.844;7.978;2023-08-24T10:26:06;98639.34;;;31.92;33.87
77877;BME280;67251;50.844;7.978;2023-08-24T10:28:32;98643.94;;;31.64;33.73
77877;BME280;67251;50.844;7.978;2023-08-24T10:30:59;98646.13;;;32.07;33.26
77877;BME280;67251;50.844;7.978;2023-08-24T10:33:26;98643.59;;;31.65;33.42
77877;BME280;67251;50.844;7.978;2023-08-24T10:35:53;98646.06;;;32.44;32.73
77877;BME280;67251;50.844;7.978;2023-08-24T10:38:23;98645.81;;;31.96;31.26
77877;BME280;67251;50.844;7.978;2023-08-24T10:40:49;98649.13;;;32.02;32.09
77877;BME280;67251;50.844;7.978;2023-08-24T10:43:16;98654.69;;;31.20;33.71
77877;BME280;67251;50.844;7.978;2023-08-24T10:45:58;98647.44;;;30.61;33.17
77877;BME280;67251;50.844;7.978;2023-08-24T10:49:15;98653.19;;;30.56;34.80
77877;BME280;67251;50.844;7.978;2023-08-24T10:54:13;98651.69;;;31.13;33.10
77877;BME280;67251;50.844;7.978;2023-08-24T10:56:38;98659.72;;;30.51;33.89
77877;BME280;67251;50.844;7.978;2023-08-24T10:59:16;98647.75;;;31.14;33.89
77877;BME280;67251;50.844;7.978;2023-08-24T11:02:03;98653.16;;;31.55;32.32
77877;BME280;67251;50.844;7.978;2023-08-24T11:04:29;98655.53;;;31.33;32.85
77877;BME280;67251;50.844;7.978;2023-08-24T11:06:56;98659.94;;;31.00;33.93
77877;BME280;67251;50.844;7.978;2023-08-24T11:09:24;98655.47;;;30.75;34.49
77877;BME280;67251;50.844;7.978;2023-08-24T11:21:48;98636.50;;;30.32;34.92
77877;BME280;67251;50.844;7.978;2023-08-24T11:24:15;98647.84;;;30.30;35.20
77877;BME280;67251;50.844;7.978;2023-08-24T11:26:46;98630.91;;;30.40;35.26
77877;BME280;67251;50.844;7.978;2023-08-24T11:29:12;98634.53;;;30.32;35.18
77877;BME280;67251;50.844;7.978;2023-08-24T11:31:38;98630.56;;;30.21;36.15
77877;BME280;67251;50.844;7.978;2023-08-24T11:34:04;98627.19;;;30.15;36.06
77877;BME280;67251;50.844;7.978;2023-08-24T11:36:31;98622.88;;;29.76;36.56
77877;BME280;67251;50.844;7.978;2023-08-24T11:38:58;98627.25;;;30.27;36.51
77877;BME280;67251;50.844;7.978;2023-08-24T11:41:24;98624.16;;;29.78;36.93
77877;BME280;67251;50.844;7.978;2023-08-24T11:43:58;98622.91;;;29.97;36.56
77877;BME280;67251;50.844;7.978;2023-08-24T11:46:24;98615.81;;;30.17;36.44
77877;BME280;67251;50.844;7.978;2023-08-24T11:48:50;98614.09;;;30.03;36.74
77877;BME280;67251;50.844;7.978;2023-08-24T11:51:16;98616.50;;;30.05;37.45
77877;BME280;67251;50.844;7.978;2023-08-24T11:53:46;98616.41;;;29.72;37.39
77877;BME280;67251;50.844;7.978;2023-08-24T11:56:12;98615.34;;;29.17;39.08
77877;BME280;67251;50.844;7.978;2023-08-24T11:58:42;98619.31;;;29.37;39.34
77877;BME280;67251;50.844;7.978;2023-08-24T12:01:08;98606.75;;;29.48;38.25
77877;BME280;67251;50.844;7.978;2023-08-24T12:03:38;98603.56;;;29.97;37.32
77877;BME280;67251;50.844;7.978;2023-08-24T12:06:15;98605.66;;;29.79;37.68
77877;BME280;67251;50.844;7.978;2023-08-24T12:08:42;98602.84;;;29.49;38.98
77877;BME280;67251;50.844;7.978;2023-08-24T12:11:16;98612.97;;;29.45;38.80
77877;BME280;67251;50.844;7.978;2023-08-24T12:13:52;98601.72;;;29.89;37.69
77877;BME280;67251;50.844;7.978;2023-08-24T12:16:19;98593.34;;;30.27;37.83
77877;BME280;67251;50.844;7.978;2023-08-24T12:18:56;98591.63;;;30.35;37.63
77877;BME280;67251;50.844;7.978;2023-08-24T12:21:23;98590.53;;;30.69;36.15
77877;BME280;67251;50.844;7.978;2023-08-24T12:23:59;98594.97;;;30.82;36.98
77877;BME280;67251;50.844;7.978;2023-08-24T12:26:26;98602.94;;;30.42;37.27
77877;BME280;67251;50.844;7.978;2023-08-24T12:28:53;98606.44;;;30.72;38.80
77877;BME280;67251;50.844;7.978;2023-08-24T12:31:19;98614.88;;;30.54;37.13
77877;BME280;67251;50.844;7.978;2023-08-24T12:33:44;98633.91;;;30.47;38.55
77877;BME280;67251;50.844;7.978;2023-08-24T12:36:10;98647.84;;;30.30;38.86
77877;BME280;67251;50.844;7.978;2023-08-24T12:38:36;98653.78;;;30.41;38.85
77877;BME280;67251;50.844;7.978;2023-08-24T12:41:01;98657.63;;;30.27;37.56
77877;BME280;67251;50.844;7.978;2023-08-24T12:43:27;98645.03;;;30.39;37.87
77877;BME280;67251;50.844;7.978;2023-08-24T12:45:52;98638.69;;;30.38;37.98
77877;BME280;67251;50.844;7.978;2023-08-24T12:48:18;98629.13;;;30.57;39.28
77877;BME280;67251;50.844;7.978;2023-08-24T12:50:43;98631.53;;;30.58;38.47
77877;BME280;67251;50.844;7.978;2023-08-24T12:53:08;98634.78;;;30.81;38.79
77877;BME280;67251;50.844;7.978;2023-08-24T12:55:36;98632.06;;;30.93;38.21
77877;BME280;67251;50.844;7.978;2023-08-24T12:58:02;98638.56;;;30.55;38.18
77877;BME280;67251;50.844;7.978;2023-08-24T13:00:28;98632.16;;;29.71;39.51
77877;BME280;67251;50.844;7.978;2023-08-24T13:02:55;98629.09;;;29.94;41.39
77877;BME280;67251;50.844;7.978;2023-08-24T13:05:20;98631.06;;;29.93;41.78
77877;BME280;67251;50.844;7.978;2023-08-24T13:07:46;98637.47;;;29.76;40.47
77877;BME280;67251;50.844;7.978;2023-08-24T13:10:11;98634.94;;;29.54;40.33
77877;BME280;67251;50.844;7.978;2023-08-24T13:12:37;98628.06;;;29.31;40.73
77877;BME280;67251;50.844;7.978;2023-08-24T13:15:02;98621.53;;;28.97;41.08